Time;durP1;ratioP1;P1;durP2;ratioP2;P2;SDS_P1;SDS_P2;PMS_P1;PMS_P2;Temp;Humidity;BMP_temperature;BMP_pressure;BME280_temperature;BME280_humidity;BME280_pressure;Samples;Min_cycle;Max_cycle;Signal;HPM_P1;HPM_P2
2023/12/24 00:00:20;;;;;;;0.20;0.20;;;9.40;99.90;;;;;;5067363;28;20608;-79
2023/12/24 00:02:46;;;;;;;0.20;0.20;;;9.20;99.90;;;;;;5041566;28;20037;-79
2023/12/24 00:05:12;;;;;;;0.20;0.20;;;9.30;99.90;;;;;;5045388;28;20052;-79
2023/12/24 00:07:37;;;;;;;0.10;0.10;;;9.30;99.90;;;;;;5050663;28;20052;-79
2023/12/24 00:10:03;;;;;;;0.10;0.10;;;9.30;99.90;;;;;;5049645;28;20041;-78
2023/12/24 00:12:29;;;;;;;0.20;0.20;;;9.30;99.90;;;;;;5066045;28;20059;-79
2023/12/24 00:14:55;;;;;;;0.10;0.10;;;9.70;99.90;;;;;;5041809;28;20044;-79
2023/12/24 00:17:20;;;;;;;0.10;0.10;;;9.30;99.90;;;;;;5049654;28;20048;-80
2023/12/24 00:19:46;;;;;;;0.20;0.20;;;9.30;99.90;;;;;;5064952;28;20040;-79
2023/12/24 00:22:12;;;;;;;0.10;0.10;;;9.30;99.90;;;;;;5040925;28;20045;-80
2023/12/24 00:24:37;;;;;;;0.20;0.20;;;9.30;99.90;;;;;;5048513;28;20044;-80
2023/12/24 00:27:03;;;;;;;0.20;0.20;;;9.30;99.90;;;;;;5045954;28;20523;-80
2023/12/24 00:29:29;;;;;;;0.10;0.10;;;9.30;99.90;;;;;;5031318;28;20110;-79
2023/12/24 00:31:55;;;;;;;0.20;0.20;;;9.40;99.90;;;;;;5042566;28;20047;-82
2023/12/24 00:34:20;;;;;;;0.20;0.20;;;9.40;99.90;;;;;;5050835;28;20484;-80
2023/12/24 00:36:46;;;;;;;0.20;0.20;;;9.40;99.90;;;;;;5035152;28;20041;-79
2023/12/24 00:39:11;;;;;;;0.28;0.28;;;9.40;99.90;;;;;;5042220;28;20391;-80
2023/12/24 00:41:40;;;;;;;0.10;0.10;;;9.40;99.90;;;;;;5053368;28;20574;-80
2023/12/24 00:44:06;;;;;;;0.10;0.10;;;9.40;99.90;;;;;;5052654;28;20098;-80
2023/12/24 00:46:31;;;;;;;0.10;0.10;;;9.40;99.90;;;;;;5065180;28;20044;-80
2023/12/24 00:48:58;;;;;;;0.20;0.20;;;9.40;99.90;;;;;;5050370;28;20044;-80
2023/12/24 00:51:23;;;;;;;0.10;0.10;;;9.70;99.90;;;;;;5050109;28;20859;-79
2023/12/24 00:53:49;;;;;;;0.10;0.10;;;9.40;99.90;;;;;;5049743;28;20081;-79
2023/12/24 00:56:14;;;;;;;0.10;0.10;;;9.40;99.90;;;;;;5042959;28;20472;-78
2023/12/24 00:58:40;;;;;;;0.10;0.10;;;9.40;99.90;;;;;;5048544;28;20045;-79
2023/12/24 01:01:06;;;;;;;0.10;0.10;;;9.40;99.90;;;;;;5046740;28;20033;-78
2023/12/24 01:03:31;;;;;;;0.10;0.10;;;9.40;99.90;;;;;;5047492;28;20447;-80
2023/12/24 01:05:57;;;;;;;0.13;0.13;;;9.40;99.90;;;;;;5087032;28;20052;-79
2023/12/24 01:08:23;;;;;;;0.20;0.20;;;9.40;99.90;;;;;;5053773;28;20032;-79
2023/12/24 01:10:48;;;;;;;0.10;0.10;;;9.40;99.90;;;;;;5046341;28;20405;-79
2023/12/24 01:13:19;;;;;;;0.10;0.10;;;9.40;99.90;;;;;;5039820;28;20513;-80
2023/12/24 01:15:48;;;;;;;0.10;0.10;;;9.40;99.90;;;;;;5042129;28;20057;-80
2023/12/24 01:18:16;;;;;;;0.20;0.20;;;9.40;99.90;;;;;;5045512;28;20052;-79
2023/12/24 01:20:42;;;;;;;0.20;0.20;;;9.40;99.90;;;;;;5048004;28;20045;-79
2023/12/24 01:23:08;;;;;;;0.20;0.20;;;9.30;99.90;;;;;;5043400;28;20051;-79
2023/12/24 01:25:34;;;;;;;0.10;0.10;;;9.40;99.90;;;;;;5041286;28;20048;-78
2023/12/24 01:28:00;;;;;;;0.10;0.10;;;9.30;99.90;;;;;;5044320;28;20033;-79
2023/12/24 01:30:26;;;;;;;0.20;0.20;;;9.30;99.90;;;;;;5047001;28;20120;-79
2023/12/24 01:32:51;;;;;;;0.20;0.20;;;9.40;99.90;;;;;;5044291;28;20057;-79
2023/12/24 01:35:17;;;;;;;0.20;0.20;;;9.40;99.90;;;;;;5047493;28;20132;-78
2023/12/24 01:37:43;;;;;;;0.20;0.20;;;9.30;99.90;;;;;;5035923;28;20512;-80
2023/12/24 01:40:09;;;;;;;0.10;0.10;;;9.30;99.90;;;;;;5045647;28;20136;-78
2023/12/24 01:42:34;;;;;;;0.10;0.10;;;9.30;99.90;;;;;;5049359;28;20049;-78
2023/12/24 01:45:00;;;;;;;0.20;0.20;;;9.40;99.90;;;;;;5046107;28;20049;-78
2023/12/24 01:47:26;;;;;;;0.20;0.20;;;9.30;99.90;;;;;;5064506;28;20049;-78
2023/12/24 01:49:52;;;;;;;0.20;0.20;;;9.60;99.90;;;;;;5048755;28;20083;-80
2023/12/24 01:52:18;;;;;;;0.10;0.10;;;9.40;99.90;;;;;;5047050;28;20059;-79
2023/12/24 01:54:48;;;;;;;0.20;0.20;;;9.40;99.90;;;;;;5045429;28;20042;-79
2023/12/24 01:57:14;;;;;;;0.10;0.10;;;9.50;99.90;;;;;;5044879;28;20041;-78
2023/12/24 01:59:41;;;;;;;0.10;0.10;;;9.40;99.90;;;;;;5047991;28;20041;-78
2023/12/24 02:02:08;;;;;;;0.17;0.17;;;9.40;99.90;;;;;;5047750;28;20049;-77
2023/12/24 02:04:34;;;;;;;0.10;0.10;;;9.40;99.90;;;;;;5045009;28;20064;-77
2023/12/24 02:07:00;;;;;;;0.20;0.20;;;9.40;99.90;;;;;;5048830;28;20053;-78
2023/12/24 02:09:25;;;;;;;0.10;0.10;;;9.40;99.90;;;;;;5045916;28;20044;-78
2023/12/24 02:11:51;;;;;;;0.10;0.10;;;9.40;99.90;;;;;;5031988;28;20365;-78
2023/12/24 02:14:17;;;;;;;0.20;0.20;;;9.40;99.90;;;;;;5049159;28;20489;-79
2023/12/24 02:16:46;;;;;;;0.20;0.20;;;9.40;99.90;;;;;;5018298;28;20114;-79
2023/12/24 02:19:17;;;;;;;0.15;0.15;;;9.40;99.90;;;;;;5024981;28;20080;-79
2023/12/24 02:21:42;;;;;;;0.20;0.20;;;9.40;99.90;;;;;;5031174;28;20103;-78
2023/12/24 02:24:08;;;;;;;0.20;0.20;;;9.40;99.90;;;;;;5020684;28;20527;-79
2023/12/24 02:26:42;;;;;;;0.20;0.20;;;9.40;99.90;;;;;;5021701;28;20048;-79
2023/12/24 02:29:16;;;;;;;0.10;0.10;;;9.30;99.90;;;;;;5032268;28;20045;-79
2023/12/24 02:31:45;;;;;;;0.20;0.20;;;9.40;99.90;;;;;;5012680;28;20060;-79
2023/12/24 02:34:16;;;;;;;0.15;0.15;;;9.90;99.90;;;;;;5020798;28;20395;-78
2023/12/24 02:36:45;;;;;;;0.20;0.20;;;9.30;99.90;;;;;;5017057;28;20056;-78
2023/12/24 02:39:11;;;;;;;0.10;0.10;;;9.50;99.90;;;;;;5026135;28;20288;-77
2023/12/24 02:41:36;;;;;;;0.20;0.20;;;9.60;99.90;;;;;;5031337;28;20140;-78
2023/12/24 02:44:02;;;;;;;0.10;0.10;;;9.40;99.90;;;;;;5029590;28;20080;-78
2023/12/24 02:46:27;;;;;;;0.20;0.20;;;9.30;99.90;;;;;;5028233;28;20041;-78
2023/12/24 02:48:53;;;;;;;0.10;0.10;;;9.40;99.90;;;;;;5031413;28;20049;-77
2023/12/24 02:51:19;;;;;;;0.20;0.20;;;9.40;99.90;;;;;;5029104;28;20042;-78
2023/12/24 02:53:44;;;;;;;0.17;0.17;;;9.40;99.90;;;;;;5048161;28;20567;-78
2023/12/24 02:56:10;;;;;;;0.20;0.20;;;9.50;99.90;;;;;;5026168;28;20053;-78
2023/12/24 02:58:35;;;;;;;0.10;0.10;;;9.40;99.90;;;;;;5026414;28;20147;-79
2023/12/24 03:01:01;;;;;;;0.10;0.10;;;9.40;99.90;;;;;;5028717;28;20056;-79
2023/12/24 03:03:27;;;;;;;0.20;0.20;;;9.40;99.90;;;;;;5029494;28;20378;-80
2023/12/24 03:05:53;;;;;;;0.13;0.13;;;9.40;99.90;;;;;;5035245;28;20052;-80
2023/12/24 03:08:18;;;;;;;0.20;0.20;;;9.50;99.90;;;;;;5031821;28;20056;-78
2023/12/24 03:10:44;;;;;;;0.20;0.20;;;9.40;99.90;;;;;;5030366;28;20049;-79
2023/12/24 03:13:09;;;;;;;0.20;0.20;;;9.50;99.90;;;;;;5046760;28;20051;-79
2023/12/24 03:15:35;;;;;;;0.10;0.10;;;9.40;99.90;;;;;;5069110;28;20097;-78
2023/12/24 03:18:01;;;;;;;0.20;0.20;;;9.50;99.90;;;;;;5047992;28;20179;-79
2023/12/24 03:20:26;;;;;;;0.17;0.17;;;9.50;99.90;;;;;;5038292;28;20124;-80
2023/12/24 03:22:52;;;;;;;0.10;0.10;;;9.50;99.90;;;;;;5049305;28;20048;-79
2023/12/24 03:25:18;;;;;;;0.20;0.20;;;9.50;99.90;;;;;;5042292;28;20045;-80
2023/12/24 03:27:43;;;;;;;0.10;0.10;;;9.60;99.90;;;;;;5044856;28;20055;-80
2023/12/24 03:30:09;;;;;;;0.20;0.20;;;9.50;99.90;;;;;;5047281;28;20130;-80
2023/12/24 03:32:35;;;;;;;0.10;0.10;;;9.50;99.90;;;;;;5046677;28;20040;-79
2023/12/24 03:35:00;;;;;;;0.10;0.10;;;9.60;99.90;;;;;;5046253;28;20049;-80
2023/12/24 03:37:26;;;;;;;0.10;0.10;;;9.60;99.90;;;;;;5048386;28;20043;-77
2023/12/24 03:39:52;;;;;;;0.10;0.10;;;9.70;99.90;;;;;;5041430;28;20041;-78
2023/12/24 03:42:17;;;;;;;0.10;0.10;;;9.60;99.90;;;;;;5031856;28;20049;-77
2023/12/24 03:44:43;;;;;;;0.10;0.10;;;9.60;99.90;;;;;;5048134;28;20045;-77
2023/12/24 03:47:09;;;;;;;0.10;0.10;;;9.60;99.90;;;;;;5061180;28;20033;-77
2023/12/24 03:49:34;;;;;;;0.20;0.20;;;9.70;99.90;;;;;;5047547;28;20111;-78
2023/12/24 03:52:00;;;;;;;0.20;0.20;;;9.60;99.90;;;;;;5048403;28;20464;-79
2023/12/24 03:54:25;;;;;;;0.10;0.10;;;9.60;99.90;;;;;;5046320;28;20746;-77
2023/12/24 03:56:52;;;;;;;0.10;0.10;;;9.60;99.90;;;;;;5041230;28;20546;-78
2023/12/24 03:59:17;;;;;;;0.20;0.20;;;9.70;99.90;;;;;;5045205;28;20032;-78
2023/12/24 04:01:43;;;;;;;0.20;0.20;;;9.70;99.90;;;;;;5046860;28;20055;-78
2023/12/24 04:04:09;;;;;;;0.20;0.20;;;9.60;99.90;;;;;;5048625;28;20561;-78
2023/12/24 04:06:35;;;;;;;0.10;0.10;;;9.60;99.90;;;;;;5045291;28;20102;-77
2023/12/24 04:09:00;;;;;;;0.10;0.10;;;9.70;99.90;;;;;;5045762;28;20556;-78
2023/12/24 04:11:27;;;;;;;0.10;0.10;;;9.70;99.90;;;;;;5045248;28;20048;-76
2023/12/24 04:13:52;;;;;;;0.15;0.15;;;9.80;99.90;;;;;;5066538;28;20049;-78
2023/12/24 04:16:18;;;;;;;0.10;0.10;;;9.70;99.90;;;;;;5039941;28;20392;-78
2023/12/24 04:18:44;;;;;;;0.20;0.20;;;9.60;99.90;;;;;;5036941;28;20051;-78
2023/12/24 04:21:10;;;;;;;0.10;0.10;;;9.70;99.90;;;;;;5049317;28;20037;-78
2023/12/24 04:23:35;;;;;;;0.20;0.20;;;9.80;99.90;;;;;;5045273;28;20037;-79
2023/12/24 04:26:01;;;;;;;0.10;0.10;;;9.80;99.90;;;;;;5041810;28;20044;-78
2023/12/24 04:28:26;;;;;;;0.10;0.10;;;9.70;99.90;;;;;;5050069;28;20150;-78
2023/12/24 04:30:52;;;;;;;0.20;0.20;;;9.80;99.90;;;;;;5040588;28;20040;-78
2023/12/24 04:33:18;;;;;;;0.20;0.20;;;9.70;99.90;;;;;;5050184;28;20139;-79
2023/12/24 04:35:45;;;;;;;0.20;0.20;;;9.70;99.90;;;;;;5050436;28;20036;-78
2023/12/24 04:38:11;;;;;;;0.10;0.10;;;9.80;99.90;;;;;;5035059;28;20457;-77
2023/12/24 04:40:37;;;;;;;0.10;0.10;;;9.80;99.90;;;;;;5038985;28;20128;-78
2023/12/24 04:43:02;;;;;;;0.20;0.20;;;9.80;99.90;;;;;;5045044;28;20132;-79
2023/12/24 04:45:28;;;;;;;0.13;0.13;;;9.80;99.90;;;;;;5038723;28;20047;-78
2023/12/24 04:47:58;;;;;;;0.10;0.10;;;9.90;99.90;;;;;;5049846;28;20032;-78
2023/12/24 04:50:24;;;;;;;0.17;0.17;;;9.80;99.90;;;;;;5049899;28;20053;-78
2023/12/24 04:52:49;;;;;;;0.20;0.20;;;9.80;99.90;;;;;;5050585;28;20056;-79
2023/12/24 04:55:15;;;;;;;0.20;0.20;;;9.80;99.90;;;;;;5045779;28;20053;-78
2023/12/24 04:57:41;;;;;;;0.20;0.20;;;9.80;99.90;;;;;;5031906;28;20048;-78
2023/12/24 05:00:07;;;;;;;0.10;0.10;;;9.80;99.90;;;;;;5045019;28;20033;-78
2023/12/24 05:02:33;;;;;;;0.20;0.20;;;9.80;99.90;;;;;;5035406;28;20392;-77
2023/12/24 05:05:03;;;;;;;0.17;0.17;;;9.90;99.90;;;;;;5041661;28;20041;-77
2023/12/24 05:07:29;;;;;;;0.10;0.10;;;10.00;99.90;;;;;;5030788;28;20041;-78
2023/12/24 05:09:55;;;;;;;0.20;0.20;;;9.90;99.90;;;;;;5040061;28;20052;-78
2023/12/24 05:12:21;;;;;;;0.20;0.20;;;10.00;99.90;;;;;;5038487;28;20064;-78
2023/12/24 05:14:46;;;;;;;0.20;0.20;;;9.80;99.90;;;;;;5045361;28;20087;-77
2023/12/24 05:17:12;;;;;;;0.20;0.20;;;9.90;99.90;;;;;;5046830;28;20079;-78
2023/12/24 05:19:37;;;;;;;0.17;0.17;;;10.00;99.90;;;;;;5063489;28;20045;-78
2023/12/24 05:22:03;;;;;;;0.10;0.10;;;9.90;99.90;;;;;;5046845;28;20064;-78
2023/12/24 05:24:29;;;;;;;0.20;0.20;;;10.00;99.90;;;;;;5049267;28;20076;-77
2023/12/24 05:26:54;;;;;;;0.10;0.10;;;10.00;99.90;;;;;;5047626;28;20107;-78
2023/12/24 05:29:20;;;;;;;0.20;0.20;;;10.00;99.90;;;;;;5035148;28;20045;-77
2023/12/24 05:31:46;;;;;;;0.20;0.20;;;10.00;99.90;;;;;;5052123;28;20040;-78
2023/12/24 05:34:11;;;;;;;0.10;0.10;;;10.00;99.90;;;;;;5051585;28;20122;-78
2023/12/24 05:36:38;;;;;;;0.10;0.10;;;10.10;99.90;;;;;;5052115;28;20059;-78
2023/12/24 05:39:10;;;;;;;0.20;0.20;;;10.00;99.90;;;;;;5044340;28;20045;-77
2023/12/24 05:41:36;;;;;;;0.10;0.10;;;10.10;99.90;;;;;;5045644;28;20049;-78
2023/12/24 05:44:02;;;;;;;0.13;0.13;;;10.10;99.90;;;;;;5051107;28;20033;-78
2023/12/24 05:46:27;;;;;;;0.10;0.10;;;10.00;99.90;;;;;;5052816;28;20097;-78
2023/12/24 05:48:53;;;;;;;0.17;0.17;;;10.10;99.90;;;;;;5036587;28;20128;-78
2023/12/24 05:51:19;;;;;;;0.20;0.20;;;10.20;99.90;;;;;;5033391;28;20065;-78
2023/12/24 05:53:44;;;;;;;0.20;0.20;;;10.20;99.90;;;;;;5050598;28;20044;-77
2023/12/24 05:56:12;;;;;;;0.10;0.10;;;10.20;99.90;;;;;;5048001;28;20076;-77
2023/12/24 05:58:38;;;;;;;0.10;0.10;;;10.20;99.90;;;;;;5033207;28;20463;-78
2023/12/24 06:01:04;;;;;;;0.10;0.10;;;10.20;99.90;;;;;;5038030;28;20048;-78
2023/12/24 06:03:30;;;;;;;0.15;0.15;;;10.20;99.90;;;;;;5047397;28;20040;-77
2023/12/24 06:05:55;;;;;;;0.20;0.20;;;10.30;99.90;;;;;;5043355;28;20036;-78
2023/12/24 06:08:21;;;;;;;0.20;0.20;;;10.20;99.90;;;;;;5047377;28;20049;-78
2023/12/24 06:10:47;;;;;;;0.20;0.20;;;10.20;99.90;;;;;;5033153;28;20132;-78
2023/12/24 06:13:12;;;;;;;0.20;0.20;;;10.20;99.90;;;;;;5055522;28;20477;-78
2023/12/24 06:15:38;;;;;;;0.17;0.17;;;10.30;99.90;;;;;;5042616;28;20041;-80
2023/12/24 06:18:07;;;;;;;0.20;0.20;;;10.30;99.90;;;;;;5036732;28;20399;-78
2023/12/24 06:20:34;;;;;;;0.13;0.13;;;10.30;99.90;;;;;;5039654;28;20044;-78
2023/12/24 06:23:00;;;;;;;0.20;0.20;;;10.30;99.90;;;;;;5043923;28;20049;-78
2023/12/24 06:25:26;;;;;;;0.20;0.20;;;10.30;99.90;;;;;;5051205;28;20056;-78
2023/12/24 06:27:52;;;;;;;0.40;0.40;;;10.20;99.90;;;;;;5047727;28;20098;-79
2023/12/24 06:30:19;;;;;;;0.10;0.10;;;10.30;99.90;;;;;;5050536;28;20458;-78
2023/12/24 06:32:46;;;;;;;0.20;0.20;;;10.30;99.90;;;;;;5046241;28;20102;-78
2023/12/24 06:35:12;;;;;;;0.20;0.20;;;10.40;99.90;;;;;;5048819;28;20466;-78
2023/12/24 06:37:38;;;;;;;0.20;0.20;;;10.30;99.90;;;;;;5051498;28;20044;-78
2023/12/24 06:40:05;;;;;;;0.20;0.20;;;10.30;99.90;;;;;;5045513;28;20072;-78
2023/12/24 06:42:30;;;;;;;0.20;0.20;;;10.30;99.90;;;;;;5048117;28;20041;-77
2023/12/24 06:44:56;;;;;;;0.15;0.15;;;10.30;99.90;;;;;;5046714;28;20056;-76
2023/12/24 06:47:22;;;;;;;0.20;0.20;;;10.30;99.90;;;;;;5052537;28;20049;-76
2023/12/24 06:49:47;;;;;;;0.10;0.10;;;10.40;99.90;;;;;;5049734;28;20455;-78
2023/12/24 06:52:13;;;;;;;0.20;0.20;;;10.40;99.90;;;;;;5047127;28;20484;-78
2023/12/24 06:54:39;;;;;;;0.20;0.20;;;10.40;99.90;;;;;;5031938;28;20056;-77
2023/12/24 06:57:07;;;;;;;0.20;0.20;;;10.40;99.90;;;;;;5038903;28;20053;-78
2023/12/24 06:59:32;;;;;;;0.10;0.10;;;10.40;99.90;;;;;;5034544;28;20052;-78
2023/12/24 07:01:58;;;;;;;0.20;0.20;;;10.40;99.90;;;;;;5043528;28;20041;-78
2023/12/24 07:04:24;;;;;;;0.10;0.10;;;10.40;99.90;;;;;;5043844;28;20048;-77
2023/12/24 07:06:49;;;;;;;0.15;0.15;;;10.40;99.90;;;;;;5067664;28;20036;-77
2023/12/24 07:09:15;;;;;;;0.20;0.20;;;10.50;99.90;;;;;;5049961;28;20726;-78
2023/12/24 07:11:41;;;;;;;0.15;0.15;;;10.40;99.90;;;;;;5046153;28;20533;-77
2023/12/24 07:14:06;;;;;;;0.20;0.20;;;10.50;99.90;;;;;;5048649;28;20040;-77
2023/12/24 07:16:32;;;;;;;0.20;0.20;;;10.50;99.90;;;;;;5047565;28;20045;-77
2023/12/24 07:18:58;;;;;;;0.10;0.10;;;10.50;99.90;;;;;;5048814;28;20045;-77
2023/12/24 07:21:24;;;;;;;0.10;0.10;;;10.60;99.90;;;;;;5049943;28;20047;-77
2023/12/24 07:23:49;;;;;;;0.20;0.20;;;10.60;99.90;;;;;;5045310;28;20099;-78
2023/12/24 07:26:15;;;;;;;0.20;0.20;;;10.50;99.90;;;;;;5046332;28;20735;-78
2023/12/24 07:28:41;;;;;;;0.20;0.20;;;10.60;99.90;;;;;;5048817;28;20048;-78
2023/12/24 07:31:06;;;;;;;0.10;0.10;;;10.60;99.90;;;;;;5048434;28;20534;-78
2023/12/24 07:33:32;;;;;;;0.10;0.10;;;10.90;99.90;;;;;;5045666;28;20056;-78
2023/12/24 07:35:58;;;;;;;0.20;0.20;;;10.60;99.90;;;;;;5049845;28;20055;-79
2023/12/24 07:38:29;;;;;;;0.10;0.10;;;10.70;99.90;;;;;;5044053;28;20048;-77
2023/12/24 07:40:55;;;;;;;0.10;0.10;;;10.70;99.90;;;;;;5047231;28;20067;-79
2023/12/24 07:43:20;;;;;;;0.20;0.20;;;10.60;99.90;;;;;;5056126;28;20147;-77
2023/12/24 07:45:46;;;;;;;0.17;0.17;;;10.70;99.90;;;;;;5067476;28;20123;-78
2023/12/24 07:48:12;;;;;;;0.20;0.20;;;10.70;99.90;;;;;;5049235;28;20044;-77
2023/12/24 07:50:38;;;;;;;0.10;0.10;;;10.70;99.90;;;;;;5046705;28;20048;-78
2023/12/24 07:53:03;;;;;;;0.20;0.20;;;10.70;99.90;;;;;;5045657;28;20416;-78
2023/12/24 07:55:29;;;;;;;0.20;0.20;;;10.70;99.90;;;;;;5045978;28;20094;-79
2023/12/24 07:57:55;;;;;;;0.20;0.20;;;10.80;99.90;;;;;;5038742;28;20044;-78
2023/12/24 08:00:21;;;;;;;0.10;0.10;;;10.80;99.90;;;;;;5039139;28;20063;-77
2023/12/24 08:02:47;;;;;;;0.10;0.10;;;10.80;99.90;;;;;;5042196;28;20056;-77
2023/12/24 08:05:13;;;;;;;0.20;0.20;;;10.80;99.90;;;;;;5042432;28;20044;-77
2023/12/24 08:07:39;;;;;;;0.20;0.20;;;10.90;99.90;;;;;;5048102;28;20044;-78
2023/12/24 08:10:06;;;;;;;0.20;0.20;;;10.80;99.90;;;;;;5049465;28;20049;-78
2023/12/24 08:12:32;;;;;;;0.20;0.20;;;10.80;99.90;;;;;;5047657;28;20048;-78
2023/12/24 08:14:57;;;;;;;0.17;0.17;;;10.90;99.90;;;;;;5049762;28;20373;-78
2023/12/24 08:17:23;;;;;;;0.20;0.20;;;10.80;99.90;;;;;;5045800;28;20091;-78
2023/12/24 08:19:48;;;;;;;0.10;0.10;;;10.80;99.90;;;;;;5066648;28;20044;-78
2023/12/24 08:22:14;;;;;;;0.20;0.20;;;10.70;99.90;;;;;;5048933;28;20122;-78
2023/12/24 08:24:40;;;;;;;0.10;0.10;;;10.80;99.90;;;;;;5049110;28;20705;-77
2023/12/24 08:27:05;;;;;;;0.20;0.20;;;10.90;99.90;;;;;;5039582;28;20084;-78
2023/12/24 08:29:31;;;;;;;0.20;0.20;;;10.90;99.90;;;;;;5048236;28;20182;-78
2023/12/24 08:31:57;;;;;;;0.13;0.13;;;10.90;99.90;;;;;;5046441;28;20504;-80
2023/12/24 08:34:23;;;;;;;0.10;0.10;;;10.80;99.90;;;;;;5044765;28;20049;-77
2023/12/24 08:36:49;;;;;;;0.20;0.20;;;10.80;99.90;;;;;;5047923;28;20036;-76
2023/12/24 08:39:15;;;;;;;0.20;0.20;;;10.90;99.90;;;;;;5046205;28;20469;-78
2023/12/24 08:41:41;;;;;;;0.13;0.13;;;10.90;99.90;;;;;;5046987;28;20044;-78
2023/12/24 08:44:07;;;;;;;0.10;0.10;;;10.80;99.90;;;;;;5048481;28;20087;-78
2023/12/24 08:46:32;;;;;;;0.20;0.20;;;10.90;99.90;;;;;;5046301;28;20547;-79
2023/12/24 08:48:58;;;;;;;0.10;0.10;;;10.90;99.90;;;;;;5040919;28;20392;-78
2023/12/24 08:51:23;;;;;;;0.13;0.13;;;10.90;99.90;;;;;;5050257;28;20044;-78
2023/12/24 08:53:49;;;;;;;0.10;0.10;;;10.90;99.90;;;;;;5050784;28;20044;-78
2023/12/24 08:56:15;;;;;;;0.17;0.17;;;11.00;99.90;;;;;;5053731;28;20044;-79
2023/12/24 08:58:40;;;;;;;0.10;0.10;;;11.00;99.90;;;;;;5048564;28;20059;-80
2023/12/24 09:01:06;;;;;;;0.10;0.10;;;10.90;99.90;;;;;;5052693;28;20514;-78
2023/12/24 09:03:31;;;;;;;0.20;0.20;;;11.00;99.90;;;;;;5041981;28;20129;-79
2023/12/24 09:05:57;;;;;;;0.15;0.15;;;11.00;99.90;;;;;;5054423;28;20067;-79
2023/12/24 09:08:23;;;;;;;0.10;0.10;;;10.90;99.90;;;;;;5052411;28;20037;-80
2023/12/24 09:10:48;;;;;;;0.20;0.20;;;11.00;99.90;;;;;;5047378;28;20626;-79
2023/12/24 09:13:14;;;;;;;0.10;0.10;;;10.90;99.90;;;;;;5051653;28;20514;-79
2023/12/24 09:15:40;;;;;;;0.20;0.20;;;11.00;99.90;;;;;;5048080;28;20049;-79
2023/12/24 09:18:05;;;;;;;0.10;0.10;;;11.00;99.90;;;;;;5049615;28;20040;-79
2023/12/24 09:20:31;;;;;;;0.15;0.15;;;11.00;99.90;;;;;;5053089;28;20141;-80
2023/12/24 09:22:57;;;;;;;0.10;0.10;;;11.10;99.90;;;;;;5050823;28;20054;-77
2023/12/24 09:25:22;;;;;;;0.20;0.20;;;11.10;99.90;;;;;;5052569;28;20051;-79
2023/12/24 09:27:48;;;;;;;0.20;0.20;;;11.20;99.90;;;;;;5044164;28;20045;-79
2023/12/24 09:30:13;;;;;;;0.10;0.10;;;11.00;99.90;;;;;;5048370;28;20045;-79
2023/12/24 09:32:41;;;;;;;0.20;0.20;;;11.10;99.90;;;;;;5048875;28;20052;-79
2023/12/24 09:35:07;;;;;;;0.20;0.20;;;11.10;99.90;;;;;;5051042;28;20476;-79
2023/12/24 09:37:32;;;;;;;0.20;0.20;;;11.20;99.90;;;;;;5049312;28;20070;-79
2023/12/24 09:39:58;;;;;;;0.20;0.20;;;11.10;99.90;;;;;;5056453;28;20520;-79
2023/12/24 09:42:25;;;;;;;0.20;0.20;;;11.10;99.90;;;;;;5049999;28;20570;-79
2023/12/24 09:44:51;;;;;;;0.10;0.10;;;11.20;99.90;;;;;;5050473;28;20036;-78
2023/12/24 09:47:17;;;;;;;0.20;0.20;;;11.30;99.90;;;;;;5049735;28;20082;-78
2023/12/24 09:49:43;;;;;;;0.20;0.20;;;11.20;99.90;;;;;;5051567;28;20048;-77
2023/12/24 09:52:09;;;;;;;0.20;0.20;;;11.20;99.90;;;;;;5048995;28;20047;-78
2023/12/24 09:54:35;;;;;;;0.10;0.10;;;11.20;99.90;;;;;;5049441;28;20072;-79
2023/12/24 09:57:01;;;;;;;0.20;0.20;;;11.30;99.90;;;;;;5047705;28;20056;-77
2023/12/24 09:59:27;;;;;;;0.20;0.20;;;11.30;99.90;;;;;;5043498;28;20332;-78
2023/12/24 10:01:52;;;;;;;0.10;0.10;;;11.30;99.90;;;;;;5051263;28;20049;-78
2023/12/24 10:04:18;;;;;;;0.20;0.20;;;11.40;99.90;;;;;;5048575;28;20052;-77
2023/12/24 10:06:58;;;;;;;0.20;0.20;;;11.30;99.90;;;;;;5047297;28;20043;-78
2023/12/24 10:09:40;;;;;;;0.20;0.20;;;11.30;99.90;;;;;;5047269;28;20045;-78
2023/12/24 10:12:08;;;;;;;0.10;0.10;;;11.30;99.90;;;;;;5047058;28;20084;-77
2023/12/24 10:14:35;;;;;;;0.10;0.10;;;11.30;99.90;;;;;;5045931;28;20473;-77
2023/12/24 10:17:03;;;;;;;0.10;0.10;;;11.30;99.90;;;;;;5047044;28;20071;-78
2023/12/24 10:19:29;;;;;;;0.20;0.20;;;11.40;99.90;;;;;;5049752;28;20090;-81
2023/12/24 10:22:14;;;;;;;0.20;0.20;;;11.40;99.90;;;;;;5046336;28;20037;-79
2023/12/24 10:24:41;;;;;;;0.20;0.20;;;11.40;99.90;;;;;;5038900;28;20037;-76
2023/12/24 10:27:08;;;;;;;0.20;0.20;;;11.40;99.90;;;;;;5044886;28;20062;-77
2023/12/24 10:29:36;;;;;;;0.20;0.20;;;11.40;99.90;;;;;;5041757;28;20381;-78
2023/12/24 10:32:02;;;;;;;0.20;0.20;;;11.40;99.90;;;;;;5039956;28;20408;-79
2023/12/24 10:34:29;;;;;;;0.20;0.20;;;11.40;99.90;;;;;;5043481;28;20079;-79
2023/12/24 10:36:55;;;;;;;0.20;0.20;;;11.50;99.90;;;;;;5030168;28;20053;-80
2023/12/24 10:39:24;;;;;;;0.20;0.20;;;11.50;99.90;;;;;;5049402;28;20059;-80
2023/12/24 10:41:52;;;;;;;0.20;0.20;;;11.60;99.90;;;;;;5043243;28;20052;-78
2023/12/24 10:44:17;;;;;;;0.20;0.20;;;11.50;99.90;;;;;;5033661;28;20095;-79
2023/12/24 10:46:43;;;;;;;0.17;0.17;;;11.60;99.90;;;;;;5049617;28;20037;-80
2023/12/24 10:49:09;;;;;;;0.20;0.20;;;11.60;99.90;;;;;;5048774;28;20310;-80
2023/12/24 10:51:34;;;;;;;0.20;0.20;;;11.60;99.90;;;;;;5047702;28;20076;-77
2023/12/24 10:54:02;;;;;;;0.10;0.10;;;11.70;99.90;;;;;;5048183;28;20048;-80
2023/12/24 10:56:33;;;;;;;0.10;0.10;;;11.70;99.90;;;;;;5043607;28;20047;-80
2023/12/24 10:59:27;;;;;;;0.20;0.20;;;11.80;99.90;;;;;;5037597;28;20049;-80
2023/12/24 11:01:54;;;;;;;0.20;0.20;;;11.80;99.90;;;;;;5022707;28;20052;-80
2023/12/24 11:04:45;;;;;;;0.10;0.10;;;11.80;99.90;;;;;;5041455;28;20088;-79
2023/12/24 11:07:33;;;;;;;0.20;0.20;;;11.80;99.90;;;;;;5037435;28;20448;-79
2023/12/24 11:10:05;;;;;;;0.20;0.20;;;11.90;99.90;;;;;;5036870;28;20127;-77
2023/12/24 11:12:31;;;;;;;0.10;0.10;;;11.90;99.90;;;;;;5045821;28;20134;-79
2023/12/24 11:14:58;;;;;;;0.20;0.20;;;12.00;99.90;;;;;;5048715;28;20430;-77
2023/12/24 11:17:36;;;;;;;0.13;0.13;;;12.00;99.90;;;;;;5045651;28;20901;-80
2023/12/24 11:20:26;;;;;;;0.20;0.20;;;11.90;99.90;;;;;;5046849;28;20041;-79
2023/12/24 11:23:04;;;;;;;0.20;0.20;;;12.00;99.90;;;;;;5042986;28;20069;-78
2023/12/24 11:25:47;;;;;;;0.30;0.30;;;12.00;99.90;;;;;;5040557;28;20072;-78
2023/12/24 11:28:34;;;;;;;0.17;0.17;;;12.10;99.90;;;;;;5046609;28;20041;-79
2023/12/24 11:30:59;;;;;;;0.13;0.13;;;12.10;99.90;;;;;;5047427;28;20045;-79
2023/12/24 11:33:28;;;;;;;0.20;0.20;;;11.90;99.90;;;;;;5047458;28;20040;-79
2023/12/24 11:35:55;;;;;;;0.20;0.20;;;12.00;99.90;;;;;;5047879;28;20056;-80
2023/12/24 11:38:33;;;;;;;0.20;0.20;;;12.00;99.90;;;;;;5040856;28;20080;-79
2023/12/24 11:41:05;;;;;;;0.20;0.20;;;12.10;99.90;;;;;;5046486;28;20041;-79
2023/12/24 11:43:31;;;;;;;0.15;0.15;;;12.10;99.90;;;;;;5046910;28;20049;-79
2023/12/24 11:45:57;;;;;;;0.20;0.20;;;12.10;99.90;;;;;;5047140;28;20534;-80
2023/12/24 11:48:28;;;;;;;0.17;0.17;;;12.10;99.90;;;;;;5047791;28;20048;-80
2023/12/24 11:51:05;;;;;;;0.20;0.20;;;12.00;99.90;;;;;;5046256;28;20132;-80
2023/12/24 11:53:34;;;;;;;0.10;0.10;;;12.00;99.90;;;;;;5044740;28;20526;-80
2023/12/24 11:56:13;;;;;;;0.17;0.17;;;12.00;99.90;;;;;;5041275;28;20048;-79
2023/12/24 11:59:00;;;;;;;0.17;0.17;;;12.10;99.90;;;;;;5045248;28;20118;-80
2023/12/24 12:01:35;;;;;;;0.10;0.10;;;12.10;99.90;;;;;;5029831;28;20578;-80
2023/12/24 12:04:02;;;;;;;0.10;0.10;;;12.20;99.90;;;;;;5049419;28;20082;-79
2023/12/24 12:06:33;;;;;;;0.10;0.10;;;12.10;99.90;;;;;;5049346;28;20060;-80
2023/12/24 12:09:06;;;;;;;0.20;0.20;;;12.10;99.90;;;;;;5037236;28;20116;-79
2023/12/24 12:11:32;;;;;;;0.20;0.20;;;12.10;99.90;;;;;;5048355;28;20048;-80
2023/12/24 12:13:59;;;;;;;0.20;0.20;;;12.20;99.90;;;;;;5037109;28;20064;-80
2023/12/24 12:16:24;;;;;;;0.20;0.20;;;12.20;99.90;;;;;;5031237;28;20037;-80
2023/12/24 12:18:50;;;;;;;0.10;0.10;;;12.20;99.90;;;;;;5047241;28;20048;-79
2023/12/24 12:21:16;;;;;;;0.10;0.10;;;12.20;99.90;;;;;;5050624;28;20119;-80
2023/12/24 12:23:42;;;;;;;0.20;0.20;;;12.20;99.90;;;;;;5046735;28;20052;-80
2023/12/24 12:26:07;;;;;;;0.20;0.20;;;12.20;99.90;;;;;;5048804;28;20056;-81
2023/12/24 12:28:36;;;;;;;0.20;0.20;;;12.20;99.90;;;;;;5050914;28;20043;-80
2023/12/24 12:31:03;;;;;;;0.20;0.20;;;12.30;99.90;;;;;;5054282;28;20369;-80
2023/12/24 12:33:28;;;;;;;0.20;0.20;;;12.30;99.90;;;;;;5065861;28;20052;-80
2023/12/24 12:35:55;;;;;;;0.20;0.20;;;12.30;99.90;;;;;;5051979;28;20480;-80
2023/12/24 12:38:22;;;;;;;0.20;0.20;;;12.30;99.90;;;;;;5049070;28;20135;-80
2023/12/24 12:40:49;;;;;;;0.20;0.20;;;12.30;99.90;;;;;;5037376;28;20515;-80
2023/12/24 12:43:20;;;;;;;0.20;0.20;;;12.20;99.90;;;;;;5036079;28;20064;-80
2023/12/24 12:45:46;;;;;;;0.20;0.20;;;12.30;99.90;;;;;;5052749;28;20052;-80
2023/12/24 12:48:11;;;;;;;0.20;0.20;;;12.30;99.90;;;;;;5051678;28;20201;-80